Time;durP1;ratioP1;P1;durP2;ratioP2;P2;SDS_P1;SDS_P2;PMS_P1;PMS_P2;Temp;Humidity;BMP_temperature;BMP_pressure;BME280_temperature;BME280_humidity;BME280_pressure;Samples;Min_cycle;Max_cycle;Signal;HPM_P1;HPM_P2
2022/10/06 00:01:30;;;;;;;5.27;1.00;;;;;;;;;;5010987;28;20391;-65
2022/10/06 00:03:55;;;;;;;3.43;0.70;;;;;;;;;;5039310;23;21864;-67
2022/10/06 00:06:21;;;;;;;2.38;0.70;;;;;;;;;;5058806;28;20244;-66
2022/10/06 00:08:47;;;;;;;5.05;0.90;;;;;;;;;;5063917;28;20472;-66
2022/10/06 00:11:13;;;;;;;4.68;0.85;;;;;;;;;;5069466;28;20016;-66
2022/10/06 00:13:39;;;;;;;5.15;0.77;;;;;;;;;;5060821;28;20380;-66
2022/10/06 00:16:08;;;;;;;7.95;1.00;;;;;;;;;;5044999;28;20020;-66
2022/10/06 00:18:33;;;;;;;6.75;0.80;;;;;;;;;;5044452;28;20029;-66
2022/10/06 00:20:59;;;;;;;4.50;0.70;;;;;;;;;;5039289;28;20017;-66
2022/10/06 00:23:24;;;;;;;2.72;0.70;;;;;;;;;;5038453;28;20024;-66
2022/10/06 00:25:50;;;;;;;4.88;1.00;;;;;;;;;;5040844;28;20010;-66
2022/10/06 00:28:15;;;;;;;3.47;0.73;;;;;;;;;;5046432;28;20493;-67
2022/10/06 00:30:41;;;;;;;3.85;0.93;;;;;;;;;;5046127;28;20024;-67
2022/10/06 00:33:06;;;;;;;3.92;0.65;;;;;;;;;;5046226;28;20025;-66
2022/10/06 00:35:33;;;;;;;4.77;1.60;;;;;;;;;;5035128;28;20240;-67
2022/10/06 00:38:01;;;;;;;3.47;0.80;;;;;;;;;;5042737;28;20037;-66
2022/10/06 00:40:27;;;;;;;4.22;1.02;;;;;;;;;;5035744;28;20052;-66
2022/10/06 00:42:58;;;;;;;5.93;0.45;;;;;;;;;;5037880;28;20114;-69
2022/10/06 00:45:36;;;;;;;9.25;0.85;;;;;;;;;;5041067;28;22046;-66
2022/10/06 00:48:04;;;;;;;9.30;0.95;;;;;;;;;;5040578;28;20026;-66
2022/10/06 00:50:29;;;;;;;2.90;0.88;;;;;;;;;;5048346;28;20052;-68
2022/10/06 00:52:54;;;;;;;9.65;1.27;;;;;;;;;;5040395;28;20056;-68
2022/10/06 00:55:21;;;;;;;5.18;1.17;;;;;;;;;;5039203;28;20041;-66
2022/10/06 00:57:47;;;;;;;6.80;1.73;;;;;;;;;;5043582;28;20218;-66
2022/10/06 01:00:12;;;;;;;10.95;1.38;;;;;;;;;;5040647;28;20025;-65
2022/10/06 01:02:41;;;;;;;10.80;1.63;;;;;;;;;;5037768;28;20022;-68
2022/10/06 01:05:08;;;;;;;13.05;1.90;;;;;;;;;;5034042;28;20036;-66
2022/10/06 01:07:33;;;;;;;6.32;2.55;;;;;;;;;;5035721;28;20083;-66
2022/10/06 01:09:58;;;;;;;6.18;1.30;;;;;;;;;;5045522;28;20535;-65
2022/10/06 01:12:25;;;;;;;6.73;1.20;;;;;;;;;;5041852;28;20021;-67
2022/10/06 01:14:51;;;;;;;4.43;1.27;;;;;;;;;;5045205;28;20275;-67
2022/10/06 01:17:29;;;;;;;10.93;1.70;;;;;;;;;;5039352;28;20447;-66
2022/10/06 01:20:23;;;;;;;8.63;2.40;;;;;;;;;;5042249;28;20551;-67
2022/10/06 01:22:54;;;;;;;9.25;1.92;;;;;;;;;;5026238;28;20047;-66
2022/10/06 01:25:20;;;;;;;4.30;1.25;;;;;;;;;;5042294;28;20048;-66
2022/10/06 01:27:50;;;;;;;7.00;1.00;;;;;;;;;;5037710;28;20086;-66
2022/10/06 01:30:17;;;;;;;8.18;1.80;;;;;;;;;;5048645;28;20535;-66
2022/10/06 01:32:43;;;;;;;5.35;1.45;;;;;;;;;;5040235;28;20051;-67
2022/10/06 01:35:08;;;;;;;6.32;1.38;;;;;;;;;;5044813;28;20017;-69
2022/10/06 01:37:34;;;;;;;13.15;1.40;;;;;;;;;;5048535;28;20029;-65
2022/10/06 01:39:59;;;;;;;9.23;1.63;;;;;;;;;;5042403;28;20121;-66
2022/10/06 01:42:24;;;;;;;19.77;2.38;;;;;;;;;;5049943;28;20027;-65
2022/10/06 01:44:49;;;;;;;8.27;2.13;;;;;;;;;;5052210;28;20024;-66
2022/10/06 01:47:15;;;;;;;16.83;2.70;;;;;;;;;;5047462;28;20025;-67
2022/10/06 01:49:40;;;;;;;10.50;2.28;;;;;;;;;;5051022;28;20283;-65
2022/10/06 01:52:05;;;;;;;11.80;2.83;;;;;;;;;;5049635;28;20029;-67
2022/10/06 01:54:30;;;;;;;9.88;2.28;;;;;;;;;;5043673;28;20679;-69
2022/10/06 01:56:55;;;;;;;10.17;2.57;;;;;;;;;;5039669;28;20032;-65
2022/10/06 01:59:21;;;;;;;11.80;3.20;;;;;;;;;;5046214;28;20682;-65
2022/10/06 02:01:46;;;;;;;10.05;2.67;;;;;;;;;;5048943;28;20279;-65
2022/10/06 02:04:11;;;;;;;10.83;3.93;;;;;;;;;;5047365;28;20040;-65
2022/10/06 02:06:36;;;;;;;9.20;2.40;;;;;;;;;;5045301;28;20767;-65
2022/10/06 02:09:01;;;;;;;11.50;2.60;;;;;;;;;;5044008;28;20287;-67
2022/10/06 02:11:27;;;;;;;31.83;3.75;;;;;;;;;;5043506;28;20331;-66
2022/10/06 02:13:52;;;;;;;15.10;3.92;;;;;;;;;;5049578;28;20445;-66
2022/10/06 02:16:17;;;;;;;15.50;4.03;;;;;;;;;;5045787;28;20124;-65
2022/10/06 02:18:43;;;;;;;16.67;2.85;;;;;;;;;;5044086;28;20352;-66
2022/10/06 02:21:12;;;;;;;23.85;3.47;;;;;;;;;;5049146;28;20377;-66
2022/10/06 02:23:38;;;;;;;7.25;2.78;;;;;;;;;;5042132;28;20485;-66
2022/10/06 02:26:04;;;;;;;11.65;2.58;;;;;;;;;;5045291;28;20032;-66
2022/10/06 02:28:29;;;;;;;10.38;2.55;;;;;;;;;;5047930;28;20047;-65
2022/10/06 02:30:58;;;;;;;14.05;2.72;;;;;;;;;;5047642;28;20470;-66
2022/10/06 02:33:24;;;;;;;18.20;1.83;;;;;;;;;;5043509;28;20017;-65
2022/10/06 02:35:52;;;;;;;19.23;2.63;;;;;;;;;;5041058;28;20020;-65
2022/10/06 02:38:18;;;;;;;12.98;2.75;;;;;;;;;;5036730;28;20163;-65
2022/10/06 02:40:43;;;;;;;20.90;3.00;;;;;;;;;;5049125;28;20118;-67
2022/10/06 02:43:08;;;;;;;11.70;2.17;;;;;;;;;;5043596;28;20280;-65
2022/10/06 02:45:33;;;;;;;16.57;2.00;;;;;;;;;;5043040;28;20389;-69
2022/10/06 02:47:58;;;;;;;12.90;3.22;;;;;;;;;;5039668;28;20271;-65
2022/10/06 02:50:23;;;;;;;21.02;3.60;;;;;;;;;;5041088;28;20017;-66
2022/10/06 02:52:48;;;;;;;21.03;4.33;;;;;;;;;;5045228;28;20037;-65
2022/10/06 02:55:14;;;;;;;16.60;3.33;;;;;;;;;;5047711;28;20267;-65
2022/10/06 02:57:39;;;;;;;14.23;3.33;;;;;;;;;;5042438;28;20347;-65
2022/10/06 03:00:06;;;;;;;12.27;2.77;;;;;;;;;;5043271;28;20470;-65
2022/10/06 03:02:31;;;;;;;11.20;3.15;;;;;;;;;;5032844;28;20816;-65
2022/10/06 03:04:57;;;;;;;15.60;3.05;;;;;;;;;;5043012;28;20025;-66
2022/10/06 03:07:22;;;;;;;23.58;3.58;;;;;;;;;;5042144;28;20028;-66
2022/10/06 03:09:47;;;;;;;18.20;3.80;;;;;;;;;;5041355;28;20028;-66
2022/10/06 03:12:12;;;;;;;12.27;3.28;;;;;;;;;;5045623;28;20272;-66
2022/10/06 03:14:37;;;;;;;16.77;3.80;;;;;;;;;;5048990;28;20021;-65
2022/10/06 03:17:02;;;;;;;19.57;3.57;;;;;;;;;;5045057;28;20036;-65
2022/10/06 03:19:28;;;;;;;27.30;5.47;;;;;;;;;;5042330;28;20617;-65
2022/10/06 03:21:53;;;;;;;20.33;3.20;;;;;;;;;;5045223;28;20271;-65
2022/10/06 03:24:18;;;;;;;10.47;2.07;;;;;;;;;;5047034;28;20029;-67
2022/10/06 03:26:44;;;;;;;8.87;2.37;;;;;;;;;;5048347;28;20818;-65
2022/10/06 03:29:10;;;;;;;13.02;2.17;;;;;;;;;;5037475;28;20324;-65
2022/10/06 03:31:36;;;;;;;13.57;2.60;;;;;;;;;;5038800;28;20052;-66
2022/10/06 03:34:01;;;;;;;13.60;2.63;;;;;;;;;;5046794;28;20075;-66
2022/10/06 03:36:28;;;;;;;15.48;2.28;;;;;;;;;;5044280;28;20037;-66
2022/10/06 03:38:53;;;;;;;16.10;3.60;;;;;;;;;;5047313;28;20056;-66
2022/10/06 03:41:23;;;;;;;13.07;2.60;;;;;;;;;;5037319;28;20044;-67
2022/10/06 03:43:49;;;;;;;20.45;2.67;;;;;;;;;;5047454;28;20025;-67
2022/10/06 03:46:17;;;;;;;13.40;2.30;;;;;;;;;;5042777;28;20086;-67
2022/10/06 03:48:42;;;;;;;19.52;2.75;;;;;;;;;;5046374;28;20582;-67
2022/10/06 03:51:34;;;;;;;17.00;2.83;;;;;;;;;;5036592;28;20041;-67
2022/10/06 03:53:59;;;;;;;12.13;2.08;;;;;;;;;;5039354;28;20036;-67
2022/10/06 03:56:29;;;;;;;12.57;3.10;;;;;;;;;;5048439;28;20120;-67
2022/10/06 03:59:01;;;;;;;15.77;3.28;;;;;;;;;;5044221;28;20017;-66
2022/10/06 04:01:33;;;;;;;13.13;2.45;;;;;;;;;;5047380;28;20025;-68
2022/10/06 04:03:59;;;;;;;18.92;2.92;;;;;;;;;;5043242;28;20090;-67
2022/10/06 04:06:25;;;;;;;17.58;2.72;;;;;;;;;;5043794;28;20028;-65
2022/10/06 04:08:51;;;;;;;17.63;3.30;;;;;;;;;;5041367;28;20037;-66
2022/10/06 04:11:19;;;;;;;26.83;2.55;;;;;;;;;;5039020;28;20024;-66
2022/10/06 04:13:44;;;;;;;22.85;2.78;;;;;;;;;;5038860;28;22023;-66
2022/10/06 04:16:10;;;;;;;12.25;2.17;;;;;;;;;;5046246;28;20033;-67
2022/10/06 04:18:37;;;;;;;19.17;2.47;;;;;;;;;;5042946;28;20020;-66
2022/10/06 04:21:02;;;;;;;15.07;3.22;;;;;;;;;;5047183;28;20112;-65
2022/10/06 04:23:27;;;;;;;13.80;2.00;;;;;;;;;;5046058;28;20160;-65
2022/10/06 04:26:04;;;;;;;17.20;3.17;;;;;;;;;;5046511;28;20096;-69
2022/10/06 04:28:29;;;;;;;27.42;2.42;;;;;;;;;;5039023;28;20387;-66
2022/10/06 04:30:55;;;;;;;22.38;3.08;;;;;;;;;;5048837;28;20096;-65
2022/10/06 04:33:21;;;;;;;21.00;2.30;;;;;;;;;;5042413;28;20032;-65
2022/10/06 04:35:46;;;;;;;24.70;2.97;;;;;;;;;;5039507;28;20046;-66
2022/10/06 04:38:14;;;;;;;14.77;2.90;;;;;;;;;;5044028;28;20083;-67
2022/10/06 04:40:39;;;;;;;13.48;2.42;;;;;;;;;;5047154;28;20271;-66
2022/10/06 04:43:04;;;;;;;18.00;2.90;;;;;;;;;;5040120;28;20090;-66
2022/10/06 04:45:29;;;;;;;12.10;2.65;;;;;;;;;;5033174;28;20491;-67
2022/10/06 04:47:54;;;;;;;25.73;2.87;;;;;;;;;;5035786;28;20187;-66
2022/10/06 04:50:20;;;;;;;19.20;2.40;;;;;;;;;;5038622;28;20284;-65
2022/10/06 04:52:45;;;;;;;20.17;3.22;;;;;;;;;;5044662;28;20330;-65
2022/10/06 04:55:10;;;;;;;15.65;3.58;;;;;;;;;;5040124;28;20124;-68
2022/10/06 04:57:35;;;;;;;21.10;3.08;;;;;;;;;;5042219;28;20075;-66
2022/10/06 05:02:45;;;;;;;14.50;2.05;;;;;;;;;;5038520;28;20045;-67
2022/10/06 05:05:10;;;;;;;28.85;2.75;;;;;;;;;;5040254;28;20032;-65
2022/10/06 05:07:35;;;;;;;12.20;1.53;;;;;;;;;;5042524;28;20060;-66
2022/10/06 05:10:01;;;;;;;11.60;2.22;;;;;;;;;;5041876;28;20275;-65
2022/10/06 05:12:29;;;;;;;15.07;2.37;;;;;;;;;;5034172;28;20032;-66
2022/10/06 05:14:55;;;;;;;15.30;2.45;;;;;;;;;;5039451;28;20303;-66
2022/10/06 05:17:20;;;;;;;20.38;2.38;;;;;;;;;;5049536;28;20028;-68
2022/10/06 05:19:45;;;;;;;12.70;2.63;;;;;;;;;;5049534;28;20044;-65
2022/10/06 05:22:10;;;;;;;16.90;2.87;;;;;;;;;;5038683;28;20397;-65
2022/10/06 05:24:35;;;;;;;20.27;3.30;;;;;;;;;;5040907;28;20279;-65
2022/10/06 05:27:02;;;;;;;19.70;3.13;;;;;;;;;;5037999;28;20748;-67
2022/10/06 05:29:27;;;;;;;15.63;2.38;;;;;;;;;;5047219;28;20024;-66
2022/10/06 05:31:54;;;;;;;24.90;2.47;;;;;;;;;;5040353;28;20401;-69
2022/10/06 05:34:20;;;;;;;12.85;2.30;;;;;;;;;;5040687;28;20284;-66
2022/10/06 05:36:46;;;;;;;27.73;2.95;;;;;;;;;;5041732;28;20052;-66
2022/10/06 05:39:11;;;;;;;13.93;2.65;;;;;;;;;;5044855;28;20057;-67
2022/10/06 05:41:37;;;;;;;18.33;2.97;;;;;;;;;;5047066;28;20453;-66
2022/10/06 05:44:02;;;;;;;17.13;2.33;;;;;;;;;;5041395;28;20275;-66
2022/10/06 05:46:28;;;;;;;15.68;3.30;;;;;;;;;;5040192;28;20469;-67
2022/10/06 05:48:54;;;;;;;24.63;3.30;;;;;;;;;;5044631;28;20021;-68
2022/10/06 05:51:20;;;;;;;22.98;2.53;;;;;;;;;;5037111;28;20033;-66
2022/10/06 05:53:46;;;;;;;20.00;3.00;;;;;;;;;;5038892;28;20388;-68
2022/10/06 05:56:16;;;;;;;16.00;2.70;;;;;;;;;;5039325;28;20027;-66
2022/10/06 05:58:42;;;;;;;18.67;2.67;;;;;;;;;;5040316;28;20025;-66
2022/10/06 06:01:15;;;;;;;17.27;2.08;;;;;;;;;;5044869;28;20056;-66
2022/10/06 06:03:41;;;;;;;19.40;2.88;;;;;;;;;;5043662;28;20021;-66
2022/10/06 06:06:14;;;;;;;18.33;3.85;;;;;;;;;;5040627;28;20071;-66
2022/10/06 06:08:39;;;;;;;21.73;2.78;;;;;;;;;;5048372;28;20027;-65
2022/10/06 06:11:07;;;;;;;17.70;2.60;;;;;;;;;;5047670;28;20024;-66
2022/10/06 06:13:33;;;;;;;15.75;2.80;;;;;;;;;;5035545;28;22354;-66
2022/10/06 06:15:59;;;;;;;15.43;2.45;;;;;;;;;;5037631;28;20054;-68
2022/10/06 06:18:24;;;;;;;26.35;2.72;;;;;;;;;;5042352;28;20023;-67
2022/10/06 06:20:59;;;;;;;16.48;2.42;;;;;;;;;;5044412;28;20104;-68
2022/10/06 06:23:29;;;;;;;22.88;2.58;;;;;;;;;;5048225;28;20032;-69
2022/10/06 06:25:55;;;;;;;16.23;3.50;;;;;;;;;;5045388;28;20437;-69
2022/10/06 06:28:21;;;;;;;16.83;2.63;;;;;;;;;;5033600;28;20048;-67
2022/10/06 06:30:46;;;;;;;20.52;2.70;;;;;;;;;;5045348;28;20102;-65
2022/10/06 06:33:11;;;;;;;20.15;3.15;;;;;;;;;;5043402;28;20080;-66
2022/10/06 06:35:37;;;;;;;20.00;3.05;;;;;;;;;;5034707;28;20041;-66
2022/10/06 06:38:02;;;;;;;12.10;2.23;;;;;;;;;;5044187;28;20092;-66
2022/10/06 06:40:27;;;;;;;21.67;3.47;;;;;;;;;;5050430;28;20267;-67
2022/10/06 06:42:52;;;;;;;23.90;2.97;;;;;;;;;;5045411;28;20275;-68
2022/10/06 06:45:17;;;;;;;17.13;3.10;;;;;;;;;;5045843;28;20111;-66
2022/10/06 06:47:42;;;;;;;21.23;3.15;;;;;;;;;;5033679;28;20033;-66
2022/10/06 06:50:09;;;;;;;15.73;2.93;;;;;;;;;;5047225;28;20029;-66
2022/10/06 06:52:35;;;;;;;20.17;2.58;;;;;;;;;;5051129;28;20287;-67
2022/10/06 06:55:00;;;;;;;20.75;4.88;;;;;;;;;;5049712;28;20042;-66
2022/10/06 06:57:25;;;;;;;26.20;3.50;;;;;;;;;;5051051;28;20025;-68
2022/10/06 06:59:51;;;;;;;26.20;2.90;;;;;;;;;;5050691;28;20283;-66
2022/10/06 07:02:16;;;;;;;23.45;3.60;;;;;;;;;;5049035;28;20357;-68
2022/10/06 07:04:42;;;;;;;25.27;3.03;;;;;;;;;;5050209;28;20071;-66
2022/10/06 07:07:09;;;;;;;16.40;2.63;;;;;;;;;;5048752;28;20095;-66
2022/10/06 07:09:34;;;;;;;12.77;3.28;;;;;;;;;;5049008;28;20017;-68
2022/10/06 07:11:59;;;;;;;15.30;2.77;;;;;;;;;;5045227;28;20173;-66
2022/10/06 07:14:24;;;;;;;22.20;3.90;;;;;;;;;;5033846;28;20295;-67
2022/10/06 07:25:07;;;;;;;24.80;3.53;;;;;;;;;;5049968;28;20110;-67
2022/10/06 07:27:34;;;;;;;15.27;3.40;;;;;;;;;;5051100;28;20067;-67
2022/10/06 07:29:59;;;;;;;22.52;3.72;;;;;;;;;;5051058;28;20074;-65
2022/10/06 07:32:26;;;;;;;20.50;2.70;;;;;;;;;;5048955;28;20020;-65
2022/10/06 07:34:51;;;;;;;13.63;3.30;;;;;;;;;;5042265;28;20017;-67
2022/10/06 07:37:17;;;;;;;20.03;3.07;;;;;;;;;;5031055;28;20017;-66
2022/10/06 07:39:48;;;;;;;17.40;3.20;;;;;;;;;;5031186;28;20335;-65
2022/10/06 07:42:14;;;;;;;21.88;3.08;;;;;;;;;;5034377;28;20033;-66
2022/10/06 07:44:39;;;;;;;17.70;2.90;;;;;;;;;;5043264;28;20021;-66
2022/10/06 07:47:05;;;;;;;16.95;3.10;;;;;;;;;;5047932;28;20388;-65
2022/10/06 07:49:30;;;;;;;22.13;3.08;;;;;;;;;;5051028;28;20009;-65
2022/10/06 07:51:57;;;;;;;22.97;3.47;;;;;;;;;;5047619;28;20013;-66
2022/10/06 07:54:23;;;;;;;20.40;3.20;;;;;;;;;;5049261;28;20299;-66
2022/10/06 07:56:49;;;;;;;16.45;3.17;;;;;;;;;;5051093;28;20059;-65
2022/10/06 07:59:14;;;;;;;22.13;2.93;;;;;;;;;;5047582;28;20018;-68
2022/10/06 08:01:39;;;;;;;19.73;3.00;;;;;;;;;;5047754;28;20096;-65
2022/10/06 08:04:05;;;;;;;21.57;3.27;;;;;;;;;;5047811;28;20079;-67
2022/10/06 08:06:31;;;;;;;20.23;3.70;;;;;;;;;;5050339;28;20029;-66
2022/10/06 08:08:56;;;;;;;14.63;3.25;;;;;;;;;;5050645;28;20411;-66
2022/10/06 08:11:22;;;;;;;19.25;2.67;;;;;;;;;;5048057;28;20374;-65
2022/10/06 08:13:47;;;;;;;20.70;3.38;;;;;;;;;;5048700;28;20025;-67
2022/10/06 08:16:14;;;;;;;11.13;2.70;;;;;;;;;;5038875;28;20041;-67
2022/10/06 08:18:40;;;;;;;16.05;2.97;;;;;;;;;;5037171;28;20259;-66
2022/10/06 08:21:15;;;;;;;18.65;3.70;;;;;;;;;;5048222;28;20096;-65
2022/10/06 08:23:41;;;;;;;23.38;3.22;;;;;;;;;;5047931;28;20027;-67
2022/10/06 08:26:06;;;;;;;22.95;4.15;;;;;;;;;;5050333;28;20028;-65
2022/10/06 08:28:32;;;;;;;18.42;3.80;;;;;;;;;;5046153;28;20025;-65
2022/10/06 08:31:01;;;;;;;20.77;3.65;;;;;;;;;;5047649;28;20396;-67
2022/10/06 08:33:26;;;;;;;19.73;3.78;;;;;;;;;;5039164;28;20499;-66
2022/10/06 08:35:52;;;;;;;14.13;3.00;;;;;;;;;;5046188;28;20025;-65
2022/10/06 08:38:17;;;;;;;26.37;3.90;;;;;;;;;;5049215;28;20388;-66
2022/10/06 08:40:43;;;;;;;24.38;3.42;;;;;;;;;;5046608;28;20013;-65
2022/10/06 08:43:13;;;;;;;19.83;3.65;;;;;;;;;;5046623;28;20071;-65
2022/10/06 08:45:41;;;;;;;24.58;3.42;;;;;;;;;;5035328;28;20030;-65
2022/10/06 08:48:16;;;;;;;25.30;3.45;;;;;;;;;;5030513;28;20032;-66
2022/10/06 08:50:57;;;;;;;19.08;3.45;;;;;;;;;;5030208;28;20024;-65
2022/10/06 08:53:38;;;;;;;17.60;3.13;;;;;;;;;;5046931;28;20040;-67
2022/10/06 08:56:03;;;;;;;18.60;3.22;;;;;;;;;;5031539;28;20101;-65
2022/10/06 08:58:31;;;;;;;17.75;2.75;;;;;;;;;;5050412;28;20092;-66
2022/10/06 09:01:17;;;;;;;19.52;3.50;;;;;;;;;;5046713;28;20308;-65
2022/10/06 09:03:46;;;;;;;22.77;3.03;;;;;;;;;;5030959;28;20493;-65
2022/10/06 09:06:14;;;;;;;15.50;3.70;;;;;;;;;;5030873;28;20037;-69
2022/10/06 09:08:49;;;;;;;15.98;3.97;;;;;;;;;;5029753;28;20095;-65
2022/10/06 09:11:33;;;;;;;21.80;3.78;;;;;;;;;;5031071;28;20029;-65
2022/10/06 09:14:01;;;;;;;18.73;3.10;;;;;;;;;;5029156;28;20505;-66
2022/10/06 09:16:29;;;;;;;24.30;3.55;;;;;;;;;;5037257;28;20025;-67
2022/10/06 09:19:07;;;;;;;23.20;3.70;;;;;;;;;;5047120;28;20017;-67
2022/10/06 09:21:35;;;;;;;19.85;2.95;;;;;;;;;;5049244;28;20155;-68
2022/10/06 09:24:04;;;;;;;16.95;3.45;;;;;;;;;;5045720;28;20357;-67
2022/10/06 09:26:30;;;;;;;27.08;4.07;;;;;;;;;;5048691;28;20068;-67
2022/10/06 09:28:56;;;;;;;14.85;2.65;;;;;;;;;;5046341;28;20017;-68
2022/10/06 09:31:21;;;;;;;22.92;3.70;;;;;;;;;;5043309;28;20033;-69
2022/10/06 09:33:47;;;;;;;15.10;3.42;;;;;;;;;;5046215;28;20051;-67
2022/10/06 09:36:13;;;;;;;18.23;3.53;;;;;;;;;;5038119;28;20035;-65
2022/10/06 09:38:54;;;;;;;23.65;4.28;;;;;;;;;;5045904;28;20013;-67
2022/10/06 09:41:49;;;;;;;21.38;3.05;;;;;;;;;;5039252;28;20029;-68
2022/10/06 09:44:23;;;;;;;19.33;2.75;;;;;;;;;;5028731;28;20655;-67
2022/10/06 09:46:48;;;;;;;17.15;3.50;;;;;;;;;;5048354;28;20021;-67
2022/10/06 09:49:23;;;;;;;22.48;2.70;;;;;;;;;;5045346;28;20393;-67
2022/10/06 09:51:57;;;;;;;18.80;3.55;;;;;;;;;;5043423;28;20016;-67
2022/10/06 09:54:23;;;;;;;14.23;2.92;;;;;;;;;;5048419;28;20363;-67
2022/10/06 09:56:48;;;;;;;15.77;2.67;;;;;;;;;;5048840;28;20029;-67
2022/10/06 09:59:17;;;;;;;17.13;2.70;;;;;;;;;;5051431;28;20033;-68
2022/10/06 10:01:49;;;;;;;16.83;2.50;;;;;;;;;;5053309;28;20247;-67
2022/10/06 10:04:19;;;;;;;17.77;2.92;;;;;;;;;;5050115;28;20044;-69
2022/10/06 10:06:44;;;;;;;;;;;;;;;;;;5049739;28;20111;-67
2022/10/06 10:09:25;;;;;;;15.93;3.00;;;;;;;;;;5036067;28;20311;-67
2022/10/06 10:14:52;;;;;;;12.73;2.60;;;;;;;;;;5044640;28;20036;-67
2022/10/06 10:17:32;;;;;;;15.57;2.63;;;;;;;;;;5049940;28;20032;-68
2022/10/06 10:19:58;;;;;;;12.02;2.00;;;;;;;;;;5049756;28;20024;-67
2022/10/06 10:22:29;;;;;;;30.92;2.60;;;;;;;;;;5038194;28;20055;-67
2022/10/06 10:24:54;;;;;;;17.10;2.03;;;;;;;;;;5045912;28;20013;-67
2022/10/06 10:27:21;;;;;;;14.48;2.50;;;;;;;;;;5034039;28;20020;-67
2022/10/06 10:29:51;;;;;;;10.05;1.50;;;;;;;;;;5032527;28;20018;-67
2022/10/06 10:32:22;;;;;;;15.63;2.42;;;;;;;;;;5032624;28;20496;-67
2022/10/06 10:34:57;;;;;;;9.88;1.92;;;;;;;;;;5042059;28;20058;-67
2022/10/06 10:37:28;;;;;;;10.82;1.67;;;;;;;;;;5051758;28;20013;-68
2022/10/06 10:40:17;;;;;;;10.98;1.63;;;;;;;;;;5035322;28;20070;-69
2022/10/06 10:42:53;;;;;;;9.88;2.00;;;;;;;;;;5021561;28;20060;-67
2022/10/06 10:45:31;;;;;;;10.38;2.15;;;;;;;;;;5043714;28;20029;-67
2022/10/06 10:47:56;;;;;;;15.00;2.15;;;;;;;;;;5047105;28;20063;-67
2022/10/06 10:50:25;;;;;;;13.90;1.92;;;;;;;;;;5049950;28;20055;-69
2022/10/06 10:52:52;;;;;;;19.08;2.47;;;;;;;;;;5050645;28;20032;-66
2022/10/06 10:55:18;;;;;;;14.27;2.20;;;;;;;;;;5048179;28;20021;-67
2022/10/06 10:57:44;;;;;;;21.40;2.00;;;;;;;;;;5050996;28;20017;-67
2022/10/06 11:00:19;;;;;;;9.55;2.50;;;;;;;;;;5051535;28;20103;-67
2022/10/06 11:02:45;;;;;;;12.50;2.35;;;;;;;;;;5048095;28;20052;-67
2022/10/06 11:05:15;;;;;;;14.77;2.67;;;;;;;;;;5045285;28;20076;-69
2022/10/06 11:07:47;;;;;;;12.00;2.58;;;;;;;;;;5040663;28;20021;-69
2022/10/06 11:10:17;;;;;;;11.55;2.42;;;;;;;;;;5034098;28;20307;-66
2022/10/06 11:12:53;;;;;;;13.57;2.63;;;;;;;;;;5031659;28;20022;-67
2022/10/06 11:15:36;;;;;;;14.82;2.15;;;;;;;;;;5050395;28;20029;-66
2022/10/06 11:18:12;;;;;;;9.45;1.48;;;;;;;;;;5050268;28;20381;-66
2022/10/06 11:20:42;;;;;;;11.85;1.63;;;;;;;;;;5051377;28;20021;-66
2022/10/06 11:23:27;;;;;;;16.15;2.03;;;;;;;;;;5051618;28;20027;-67
2022/10/06 11:25:52;;;;;;;7.60;1.77;;;;;;;;;;5046722;28;20024;-68
2022/10/06 11:28:27;;;;;;;6.35;1.40;;;;;;;;;;5047878;28;20489;-68
2022/10/06 11:30:55;;;;;;;16.30;1.90;;;;;;;;;;5047233;28;20051;-68
2022/10/06 11:33:26;;;;;;;11.32;2.00;;;;;;;;;;5038751;28;20079;-68
2022/10/06 11:35:51;;;;;;;21.70;2.38;;;;;;;;;;5041483;28;20129;-68
2022/10/06 11:38:16;;;;;;;12.55;1.95;;;;;;;;;;5042652;28;20541;-68
2022/10/06 11:41:00;;;;;;;9.38;1.90;;;;;;;;;;5047070;28;20017;-69
2022/10/06 11:43:33;;;;;;;12.75;2.75;;;;;;;;;;5050526;28;20398;-70
2022/10/06 11:46:18;;;;;;;21.48;2.75;;;;;;;;;;5046660;28;20561;-68
2022/10/06 11:48:45;;;;;;;7.47;2.08;;;;;;;;;;4999558;28;20108;-69
2022/10/06 11:51:22;;;;;;;15.63;1.92;;;;;;;;;;5030931;28;20029;-69
2022/10/06 11:53:48;;;;;;;9.90;1.77;;;;;;;;;;5040433;28;20028;-68
2022/10/06 11:56:16;;;;;;;9.98;2.03;;;;;;;;;;5043986;28;20017;-68
2022/10/06 11:58:50;;;;;;;7.28;1.58;;;;;;;;;;5035020;28;20072;-69
2022/10/06 12:01:30;;;;;;;10.95;2.03;;;;;;;;;;5046471;28;20128;-69
2022/10/06 12:06:46;;;;;;;17.73;2.15;;;;;;;;;;5023094;28;19943;-66
2022/10/06 12:09:24;;;;;;;14.10;1.65;;;;;;;;;;5019953;28;20023;-65
2022/10/06 12:11:50;;;;;;;8.15;1.85;;;;;;;;;;5020166;28;20151;-67
2022/10/06 12:14:24;;;;;;;12.52;2.03;;;;;;;;;;5010755;28;20525;-67
2022/10/06 12:16:53;;;;;;;14.00;3.53;;;;;;;;;;5009066;28;20025;-65
2022/10/06 12:19:24;;;;;;;10.70;2.22;;;;;;;;;;5011483;28;20115;-67
2022/10/06 12:22:08;;;;;;;11.02;2.10;;;;;;;;;;5008762;28;20014;-66
2022/10/06 12:24:50;;;;;;;16.90;2.45;;;;;;;;;;5013033;28;20227;-66
2022/10/06 12:27:38;;;;;;;10.27;1.77;;;;;;;;;;5009302;28;20025;-67
2022/10/06 12:30:24;;;;;;;16.05;1.80;;;;;;;;;;5010865;28;20405;-66
2022/10/06 12:32:56;;;;;;;15.20;2.92;;;;;;;;;;5009604;28;20026;-66
2022/10/06 12:35:30;;;;;;;9.77;1.95;;;;;;;;;;5010691;28;20018;-67
2022/10/06 12:38:05;;;;;;;9.55;1.98;;;;;;;;;;5008900;28;20028;-66
2022/10/06 12:40:39;;;;;;;16.42;2.22;;;;;;;;;;5013790;28;20035;-65
2022/10/06 12:43:13;;;;;;;11.95;2.75;;;;;;;;;;5012262;28;20088;-66
2022/10/06 12:45:41;;;;;;;15.52;3.33;;;;;;;;;;5010391;28;20052;-66
2022/10/06 12:48:08;;;;;;;15.00;2.03;;;;;;;;;;5022014;28;20022;-65
2022/10/06 12:50:35;;;;;;;16.55;3.72;;;;;;;;;;5030027;28;20083;-65
2022/10/06 12:53:04;;;;;;;9.45;2.25;;;;;;;;;;5025698;28;20118;-67
2022/10/06 12:55:30;;;;;;;7.95;1.92;;;;;;;;;;5007956;28;20014;-64
2022/10/06 12:57:56;;;;;;;12.80;1.52;;;;;;;;;;5012351;28;20017;-64
2022/10/06 13:00:33;;;;;;;16.80;2.23;;;;;;;;;;5009937;28;20018;-64
2022/10/06 13:03:01;;;;;;;12.77;2.28;;;;;;;;;;5010685;28;20034;-65
2022/10/06 13:05:26;;;;;;;14.02;1.85;;;;;;;;;;5011022;28;20022;-64
2022/10/06 13:07:56;;;;;;;19.17;2.42;;;;;;;;;;5017022;28;20036;-64
2022/10/06 13:10:22;;;;;;;10.32;1.52;;;;;;;;;;5027230;28;20378;-64
2022/10/06 13:12:49;;;;;;;10.50;2.13;;;;;;;;;;5007761;28;20034;-64
2022/10/06 13:15:23;;;;;;;9.48;1.20;;;;;;;;;;5006861;28;20534;-64
2022/10/06 13:17:49;;;;;;;9.50;1.77;;;;;;;;;;5008294;28;20014;-64
2022/10/06 13:20:18;;;;;;;16.52;2.30;;;;;;;;;;5010902;28;20093;-64
2022/10/06 13:22:43;;;;;;;7.50;1.17;;;;;;;;;;5012168;28;20010;-64
2022/10/06 13:25:11;;;;;;;8.95;1.90;;;;;;;;;;5011264;28;20351;-64
2022/10/06 13:27:38;;;;;;;6.18;1.48;;;;;;;;;;5013272;28;20018;-64
2022/10/06 13:30:20;;;;;;;12.32;1.60;;;;;;;;;;5013643;28;20018;-65
2022/10/06 13:32:46;;;;;;;9.63;1.67;;;;;;;;;;5012785;28;20049;-63
2022/10/06 13:35:11;;;;;;;6.38;1.40;;;;;;;;;;5016012;28;20390;-64
2022/10/06 13:37:36;;;;;;;16.17;1.60;;;;;;;;;;5011273;28;20026;-64
2022/10/06 13:40:12;;;;;;;7.20;1.80;;;;;;;;;;5023687;28;20022;-65
2022/10/06 13:42:38;;;;;;;7.63;1.42;;;;;;;;;;5012582;28;20330;-64
2022/10/06 13:45:04;;;;;;;7.22;1.15;;;;;;;;;;5021095;28;20060;-64
2022/10/06 13:47:30;;;;;;;13.23;1.60;;;;;;;;;;5015808;28;20038;-64
2022/10/06 13:49:59;;;;;;;8.82;1.90;;;;;;;;;;5013386;28;20544;-64
2022/10/06 13:52:31;;;;;;;7.35;1.75;;;;;;;;;;5008945;28;20462;-64
2022/10/06 13:54:59;;;;;;;9.80;1.45;;;;;;;;;;5012010;28;20026;-64
2022/10/06 13:57:30;;;;;;;7.68;1.60;;;;;;;;;;5013947;28;20021;-64
2022/10/06 14:00:03;;;;;;;11.00;2.17;;;;;;;;;;5013308;28;20081;-65
2022/10/06 14:02:31;;;;;;;7.68;1.33;;;;;;;;;;5012732;28;20018;-65
2022/10/06 14:05:15;;;;;;;7.57;1.60;;;;;;;;;;5011078;28;20032;-64
2022/10/06 14:07:43;;;;;;;15.90;1.83;;;;;;;;;;5014499;28;20022;-64
2022/10/06 14:10:13;;;;;;;8.50;1.55;;;;;;;;;;5014957;28;20100;-64
2022/10/06 14:12:42;;;;;;;6.55;1.23;;;;;;;;;;5012934;28;20053;-64
2022/10/06 14:15:15;;;;;;;13.57;1.50;;;;;;;;;;5024792;28;20025;-66
2022/10/06 14:17:40;;;;;;;6.65;1.42;;;;;;;;;;5010314;28;20072;-64
2022/10/06 14:20:25;;;;;;;14.82;1.83;;;;;;;;;;5022888;28;20033;-64
2022/10/06 14:22:51;;;;;;;8.52;1.60;;;;;;;;;;4998880;28;20037;-65
2022/10/06 14:25:16;;;;;;;7.93;1.05;;;;;;;;;;5032297;28;20617;-65
2022/10/06 14:27:41;;;;;;;9.90;2.17;;;;;;;;;;5020668;28;20470;-66
2022/10/06 14:30:07;;;;;;;20.93;2.17;;;;;;;;;;5018107;28;20036;-64
2022/10/06 14:32:32;;;;;;;14.80;1.83;;;;;;;;;;5014385;28;20482;-64
2022/10/06 14:34:57;;;;;;;13.87;1.60;;;;;;;;;;5009798;28;20375;-64
2022/10/06 14:37:22;;;;;;;7.57;1.38;;;;;;;;;;5018531;28;20745;-63
2022/10/06 14:39:49;;;;;;;15.30;2.10;;;;;;;;;;5020786;28;20482;-64
2022/10/06 14:42:14;;;;;;;8.30;1.35;;;;;;;;;;5008454;28;20276;-65
2022/10/06 14:44:39;;;;;;;8.40;1.30;;;;;;;;;;5009766;28;20257;-64
2022/10/06 14:47:05;;;;;;;8.93;2.20;;;;;;;;;;5012450;28;20022;-64
2022/10/06 14:49:30;;;;;;;13.73;1.60;;;;;;;;;;5013242;28;20105;-64
2022/10/06 14:51:55;;;;;;;4.38;1.33;;;;;;;;;;5012408;28;20109;-64
2022/10/06 14:54:21;;;;;;;13.75;1.77;;;;;;;;;;5011449;28;20026;-66
2022/10/06 14:56:46;;;;;;;11.25;2.00;;;;;;;;;;5014305;28;20201;-64